createdAt,value
2022-12-05T00:01:32.551Z,26.88
2022-12-05T00:04:01.217Z,28.30
2022-12-05T00:06:29.842Z,22.88
2022-12-05T00:08:57.333Z,25.15
2022-12-05T00:11:27.012Z,22.60
2022-12-05T00:13:55.347Z,21.55
2022-12-05T00:16:24.298Z,19.17
2022-12-05T00:18:51.249Z,19.92
2022-12-05T00:21:21.024Z,20.60
2022-12-05T00:23:48.145Z,18.70
2022-12-05T00:26:15.163Z,17.88
2022-12-05T00:28:41.978Z,17.65
2022-12-05T00:31:14.723Z,17.42
2022-12-05T00:33:41.280Z,18.35
2022-12-05T00:36:18.185Z,19.02
2022-12-05T00:38:44.986Z,16.10
2022-12-05T00:41:21.135Z,17.77
2022-12-05T00:43:47.714Z,14.15
2022-12-05T00:46:20.397Z,17.42
2022-12-05T00:48:47.573Z,18.08
2022-12-05T00:51:20.132Z,18.70
2022-12-05T00:53:47.619Z,19.48
2022-12-05T00:56:20.185Z,20.60
2022-12-05T00:58:47.787Z,16.60
2022-12-05T01:01:24.965Z,19.02
2022-12-05T01:03:56.312Z,16.80
2022-12-05T01:06:23.756Z,16.95
2022-12-05T01:08:51.779Z,16.30
2022-12-05T01:11:19.581Z,15.88
2022-12-05T01:13:46.785Z,16.67
2022-12-05T01:16:19.228Z,16.98
2022-12-05T01:18:45.879Z,14.00
2022-12-05T01:21:12.663Z,15.88
2022-12-05T01:23:39.512Z,20.38
2022-12-05T01:26:08.774Z,16.98
2022-12-05T01:28:36.325Z,18.52
2022-12-05T01:31:17.260Z,19.02
2022-12-05T01:33:43.809Z,21.38
2022-12-05T01:36:12.495Z,22.17
2022-12-05T01:38:40.646Z,22.23
2022-12-05T01:41:09.191Z,17.67
2022-12-05T01:43:58.707Z,15.18
2022-12-05T01:46:27.291Z,20.40
2022-12-05T01:49:08.652Z,19.02
2022-12-05T01:51:37.900Z,14.38
2022-12-05T01:54:06.063Z,16.60
2022-12-05T01:56:33.385Z,18.40
2022-12-05T01:59:01.928Z,17.10
2022-12-05T02:01:28.628Z,14.50
2022-12-05T02:03:58.406Z,13.80
2022-12-05T02:06:26.554Z,13.88
2022-12-05T02:08:54.397Z,15.63
2022-12-05T02:11:23.201Z,19.58
2022-12-05T02:14:17.283Z,12.75
2022-12-05T02:17:06.862Z,15.45
2022-12-05T02:20:07.357Z,14.50
2022-12-05T02:23:11.287Z,12.77
2022-12-05T02:26:02.715Z,14.05
2022-12-05T02:28:50.420Z,12.98
2022-12-05T02:31:54.718Z,15.32
2022-12-05T02:34:39.775Z,15.02
2022-12-05T02:37:09.133Z,16.42
2022-12-05T02:39:51.524Z,16.95
2022-12-05T02:42:44.936Z,14.05
2022-12-05T02:45:15.899Z,16.90
2022-12-05T02:47:47.938Z,15.77
2022-12-05T02:50:19.370Z,22.00
2022-12-05T02:52:48.870Z,21.08
2022-12-05T02:55:17.971Z,21.65
2022-12-05T02:57:52.747Z,25.88
2022-12-05T03:00:19.388Z,22.50
2022-12-05T03:02:45.919Z,26.08
2022-12-05T03:05:24.047Z,29.55
2022-12-05T03:07:53.634Z,26.55
2022-12-05T03:10:26.030Z,26.42
2022-12-05T03:13:02.663Z,23.65
2022-12-05T03:15:35.360Z,25.73
2022-12-05T03:18:21.604Z,24.40
2022-12-05T03:20:54.541Z,25.27
2022-12-05T03:23:38.099Z,25.40
2022-12-05T03:26:32.195Z,25.83
2022-12-05T03:29:35.983Z,20.17
2022-12-05T03:32:17.138Z,22.13
2022-12-05T03:34:49.873Z,22.05
2022-12-05T03:37:32.977Z,22.85
2022-12-05T03:40:29.767Z,24.75
2022-12-05T03:43:09.614Z,23.98
2022-12-05T03:45:48.964Z,24.98
2022-12-05T03:48:34.177Z,22.98
2022-12-05T03:51:02.040Z,17.40
2022-12-05T03:53:35.666Z,18.25
2022-12-05T03:56:08.893Z,17.15
2022-12-05T03:58:45.136Z,21.73
2022-12-05T04:01:15.845Z,16.13
2022-12-05T04:03:51.740Z,17.25
2022-12-05T04:06:35.401Z,14.45
2022-12-05T04:09:06.661Z,18.85
2022-12-05T04:11:38.410Z,15.13
2022-12-05T04:14:14.006Z,16.50
2022-12-05T04:17:05.733Z,21.27
2022-12-05T04:20:00.207Z,22.80
2022-12-05T04:22:27.851Z,17.17
2022-12-05T04:25:23.711Z,17.00
2022-12-05T04:28:07.965Z,15.27
2022-12-05T04:30:53.658Z,19.13
2022-12-05T04:33:27.566Z,18.85
2022-12-05T04:35:56.595Z,17.48
2022-12-05T04:38:38.227Z,16.88
2022-12-05T04:41:09.058Z,19.55
2022-12-05T04:43:40.787Z,16.92
2022-12-05T04:46:11.557Z,24.35
2022-12-05T04:48:41.277Z,17.40
2022-12-05T04:51:09.499Z,16.25
2022-12-05T04:53:36.535Z,19.48
2022-12-05T04:56:05.020Z,18.00
2022-12-05T04:58:32.285Z,16.98
2022-12-05T05:01:14.516Z,25.67
2022-12-05T05:03:51.164Z,13.27
2022-12-05T05:06:18.320Z,16.00
2022-12-05T05:08:54.196Z,17.40
2022-12-05T05:11:29.730Z,20.58
2022-12-05T05:13:56.394Z,18.95
2022-12-05T05:16:26.435Z,16.67
2022-12-05T05:21:19.855Z,14.82
2022-12-05T05:23:46.523Z,17.45
2022-12-05T05:26:13.430Z,18.45
2022-12-05T05:28:39.939Z,15.27
2022-12-05T05:31:07.018Z,18.95
2022-12-05T05:33:35.125Z,23.15
2022-12-05T05:36:12.660Z,16.38
2022-12-05T05:38:41.481Z,17.40
2022-12-05T05:41:17.283Z,26.95
2022-12-05T05:43:44.411Z,17.10
2022-12-05T05:46:12.420Z,18.85
2022-12-05T05:48:39.710Z,15.80
2022-12-05T05:51:08.561Z,20.40
2022-12-05T05:53:35.199Z,18.50
2022-12-05T05:56:10.755Z,18.00
2022-12-05T05:58:37.790Z,21.40
2022-12-05T06:01:10.600Z,19.15
2022-12-05T06:03:38.595Z,17.88
2022-12-05T06:06:08.262Z,16.95
2022-12-05T06:08:37.400Z,18.10
2022-12-05T06:11:08.686Z,17.13
2022-12-05T06:13:35.235Z,18.13
2022-12-05T06:16:05.015Z,16.77
2022-12-05T06:18:31.776Z,14.82
2022-12-05T06:20:58.970Z,15.40
2022-12-05T06:23:26.592Z,17.52
2022-12-05T06:25:55.255Z,13.57
2022-12-05T06:28:24.701Z,13.98
2022-12-05T06:30:51.539Z,15.27
2022-12-05T06:33:18.794Z,16.00
2022-12-05T06:35:46.244Z,14.60
2022-12-05T06:38:13.002Z,20.88
2022-12-05T06:40:41.069Z,15.10
2022-12-05T06:43:07.858Z,14.10
2022-12-05T06:45:34.565Z,16.25
2022-12-05T06:48:01.088Z,13.88
2022-12-05T06:50:28.250Z,15.23
2022-12-05T06:52:54.825Z,13.45
2022-12-05T06:55:22.556Z,15.75
2022-12-05T06:57:49.201Z,13.75
2022-12-05T07:00:35.792Z,18.73
2022-12-05T07:03:02.307Z,22.13
2022-12-05T07:05:28.887Z,51.15
2022-12-05T07:07:55.433Z,34.60
2022-12-05T07:10:27.586Z,20.23
2022-12-05T07:12:54.124Z,25.67
2022-12-05T07:15:20.646Z,18.98
2022-12-05T07:17:47.521Z,15.07
2022-12-05T07:20:17.759Z,15.68
2022-12-05T07:22:45.782Z,15.48
2022-12-05T07:25:12.326Z,19.23
2022-12-05T07:27:39.282Z,17.83
2022-12-05T07:30:06.545Z,15.70
2022-12-05T07:32:36.393Z,15.60
2022-12-05T07:35:03.071Z,14.05
2022-12-05T07:37:29.851Z,15.93
2022-12-05T07:39:59.802Z,16.20
2022-12-05T07:44:55.102Z,18.63
2022-12-05T07:47:21.853Z,24.98
2022-12-05T07:49:48.385Z,27.15
2022-12-05T07:52:15.427Z,20.52
2022-12-05T07:54:42.017Z,18.63
2022-12-05T07:57:08.521Z,18.15
2022-12-05T07:59:35.018Z,17.17
2022-12-05T08:02:01.574Z,15.48
2022-12-05T08:04:28.249Z,18.30
2022-12-05T08:06:54.732Z,14.30
2022-12-05T08:09:21.270Z,15.15
2022-12-05T08:11:52.388Z,17.77
2022-12-05T08:14:19.721Z,15.65
2022-12-05T08:16:46.353Z,15.48
2022-12-05T08:19:13.732Z,16.30
2022-12-05T08:21:40.374Z,15.13
2022-12-05T08:24:07.719Z,15.25
2022-12-05T08:26:36.039Z,17.55
2022-12-05T08:29:05.797Z,15.07
2022-12-05T08:31:35.527Z,20.88
2022-12-05T08:34:02.505Z,15.43
2022-12-05T08:36:30.903Z,18.83
2022-12-05T08:39:00.183Z,15.20
2022-12-05T08:41:30.101Z,15.18
2022-12-05T08:46:24.084Z,17.92
2022-12-05T08:48:51.533Z,14.52
2022-12-05T08:51:18.066Z,17.10
2022-12-05T08:53:45.046Z,13.02
2022-12-05T08:56:12.896Z,13.15
2022-12-05T08:58:39.868Z,13.57
2022-12-05T09:01:09.607Z,13.93
2022-12-05T09:03:36.433Z,16.17
2022-12-05T09:06:10.191Z,16.70
2022-12-05T09:08:37.662Z,19.20
2022-12-05T09:11:18.387Z,16.83
2022-12-05T09:13:45.189Z,14.23
2022-12-05T09:16:14.412Z,13.75
2022-12-05T09:18:42.760Z,17.48
2022-12-05T09:21:21.434Z,15.25
2022-12-05T09:23:48.336Z,11.50
2022-12-05T09:26:16.911Z,15.25
2022-12-05T09:28:44.236Z,19.20
2022-12-05T09:31:16.740Z,19.30
2022-12-05T09:33:43.881Z,14.73
2022-12-05T09:36:18.715Z,17.33
2022-12-05T09:38:45.292Z,14.13
2022-12-05T09:42:09.135Z,13.60
2022-12-05T09:45:03.903Z,14.65
2022-12-05T09:48:12.441Z,13.98
2022-12-05T09:50:49.686Z,16.42
2022-12-05T09:53:30.824Z,17.17
2022-12-05T09:56:09.250Z,17.05
2022-12-05T09:58:46.133Z,18.67
2022-12-05T10:01:34.665Z,18.02
2022-12-05T10:04:13.309Z,16.17
2022-12-05T10:07:01.694Z,18.77
2022-12-05T10:09:53.272Z,19.00
2022-12-05T10:12:41.422Z,18.15
2022-12-05T10:15:26.593Z,19.83
2022-12-05T10:18:03.608Z,18.17
2022-12-05T10:21:08.560Z,15.93
2022-12-05T10:23:56.704Z,18.13
2022-12-05T10:26:25.065Z,17.40
2022-12-05T10:31:31.371Z,17.23
2022-12-05T10:34:17.475Z,18.40
2022-12-05T10:37:23.310Z,16.70
2022-12-05T10:39:51.160Z,15.60
2022-12-05T10:42:25.209Z,12.43
2022-12-05T10:45:02.878Z,17.40
2022-12-05T10:47:30.571Z,15.63
2022-12-05T10:50:07.972Z,22.98
2022-12-05T10:52:35.556Z,29.15
2022-12-05T10:55:06.629Z,18.23
2022-12-05T10:57:33.141Z,18.65
2022-12-05T11:00:11.288Z,17.05
2022-12-05T11:02:38.500Z,14.82
2022-12-05T11:05:05.390Z,18.13
2022-12-05T11:07:43.929Z,16.70
2022-12-05T11:10:26.549Z,24.08
2022-12-05T11:12:56.005Z,16.55
2022-12-05T11:15:25.675Z,16.05
2022-12-05T11:17:57.895Z,15.15
2022-12-05T11:20:24.318Z,16.13
2022-12-05T11:22:56.467Z,17.13
2022-12-05T11:25:31.159Z,18.13
2022-12-05T11:28:21.405Z,19.05
2022-12-05T11:31:01.639Z,15.57
2022-12-05T11:33:33.137Z,17.23
2022-12-05T11:36:20.704Z,20.17
2022-12-05T11:38:47.451Z,21.20
2022-12-05T11:41:33.364Z,18.52
2022-12-05T11:44:24.735Z,18.35
2022-12-05T11:47:06.422Z,19.15
2022-12-05T11:50:08.189Z,17.05
2022-12-05T11:52:52.590Z,20.80
2022-12-05T11:55:42.213Z,19.10
2022-12-05T11:58:47.411Z,32.45
2022-12-05T12:01:43.344Z,18.83
2022-12-05T12:04:12.784Z,37.08
2022-12-05T12:06:57.300Z,43.35
2022-12-05T12:09:23.807Z,53.53
2022-12-05T12:12:14.698Z,97.80
2022-12-05T12:15:04.031Z,22.48
2022-12-05T12:17:54.246Z,18.63
2022-12-05T12:20:34.733Z,17.83
2022-12-05T12:23:22.895Z,18.90
2022-12-05T12:26:01.984Z,16.52
2022-12-05T12:29:16.054Z,20.05
2022-12-05T12:32:05.391Z,23.55
2022-12-05T12:34:42.051Z,21.05
2022-12-05T12:37:30.520Z,27.50
2022-12-05T12:40:22.320Z,18.90
2022-12-05T12:43:51.486Z,20.38
2022-12-05T12:46:11.476Z,20.83
2022-12-05T12:49:19.544Z,20.73
2022-12-05T12:51:54.095Z,19.60
2022-12-05T12:54:54.752Z,18.08
2022-12-05T12:57:28.265Z,15.15
2022-12-05T12:59:54.820Z,17.00
2022-12-05T13:02:36.304Z,17.65
2022-12-05T13:05:39.174Z,16.20
2022-12-05T13:08:28.749Z,16.85
2022-12-05T13:10:58.485Z,17.38
2022-12-05T13:13:36.759Z,19.33
2022-12-05T13:16:07.839Z,18.20
2022-12-05T13:18:35.446Z,19.88
2022-12-05T13:21:11.320Z,16.80
2022-12-05T13:23:47.495Z,17.60
2022-12-05T13:26:15.152Z,16.58
2022-12-05T13:28:52.815Z,17.08
2022-12-05T13:31:34.407Z,17.17
2022-12-05T13:34:01.029Z,22.35
2022-12-05T13:36:46.201Z,24.00
2022-12-05T13:39:48.280Z,23.30
2022-12-05T13:42:29.204Z,28.63
2022-12-05T13:44:57.516Z,20.30
2022-12-05T13:47:39.365Z,21.85
2022-12-05T13:50:21.818Z,21.05
2022-12-05T13:52:53.286Z,16.85
2022-12-05T13:55:38.920Z,19.83
2022-12-05T13:58:20.742Z,18.70
2022-12-05T14:00:47.336Z,17.20
2022-12-05T14:03:34.160Z,17.40
2022-12-05T14:06:01.227Z,22.05
2022-12-05T14:08:30.779Z,17.67
2022-12-05T14:10:57.280Z,14.82
2022-12-05T14:13:23.828Z,15.13
2022-12-05T14:15:52.568Z,20.80
2022-12-05T14:18:23.657Z,16.95
2022-12-05T14:21:11.764Z,16.10
2022-12-05T14:23:56.741Z,16.58
2022-12-05T14:26:32.914Z,18.95
2022-12-05T14:29:11.439Z,19.40
2022-12-05T14:31:52.974Z,16.65
2022-12-05T14:34:26.006Z,20.42
2022-12-05T14:37:06.331Z,16.38
2022-12-05T14:39:42.592Z,16.00
2022-12-05T14:42:27.549Z,18.55
2022-12-05T14:44:58.047Z,16.15
2022-12-05T14:47:29.071Z,17.35
2022-12-05T14:50:20.127Z,16.48
2022-12-05T14:53:15.397Z,20.65
2022-12-05T14:55:46.396Z,16.33
2022-12-05T14:58:43.535Z,18.83
2022-12-05T15:01:18.913Z,17.40
2022-12-05T15:04:23.030Z,21.85
2022-12-05T15:07:01.319Z,22.52
2022-12-05T15:09:36.930Z,21.25
2022-12-05T15:12:14.856Z,23.25
2022-12-05T15:14:50.856Z,18.95
2022-12-05T15:17:25.415Z,19.48
2022-12-05T15:19:59.811Z,21.75
2022-12-05T15:22:28.119Z,23.25
2022-12-05T15:24:54.710Z,18.35
2022-12-05T15:27:22.123Z,20.42
2022-12-05T15:29:48.896Z,22.17
2022-12-05T15:32:21.166Z,19.67
2022-12-05T15:35:06.343Z,22.58
2022-12-05T15:37:50.735Z,22.65
2022-12-05T15:40:21.814Z,23.15
2022-12-05T15:42:50.751Z,20.60
2022-12-05T15:45:21.072Z,22.92
2022-12-05T15:47:57.253Z,18.13
2022-12-05T15:50:48.311Z,21.48
2022-12-05T15:53:39.040Z,21.58
2022-12-05T15:56:12.968Z,24.55
2022-12-05T15:59:05.727Z,22.23
2022-12-05T16:01:35.466Z,20.73
2022-12-05T16:04:16.138Z,20.10
2022-12-05T16:06:47.723Z,17.63
2022-12-05T16:09:22.819Z,20.92
2022-12-05T16:12:15.558Z,18.92
2022-12-05T16:14:59.972Z,20.83
2022-12-05T16:17:30.552Z,19.23
2022-12-05T16:20:23.048Z,17.98
2022-12-05T16:22:52.479Z,21.85
2022-12-05T16:25:25.985Z,17.88
2022-12-05T16:28:07.689Z,20.00
2022-12-05T16:30:36.344Z,21.55
2022-12-05T16:33:23.185Z,20.45
2022-12-05T16:35:50.478Z,24.38
2022-12-05T16:38:16.986Z,27.23
2022-12-05T16:40:46.242Z,27.33
2022-12-05T16:43:44.151Z,25.27
2022-12-05T16:46:14.092Z,24.15
2022-12-05T16:51:11.646Z,21.13
2022-12-05T16:53:39.485Z,24.88
2022-12-05T16:56:08.028Z,25.23
2022-12-05T16:58:35.554Z,25.42
2022-12-05T17:01:05.108Z,25.23
2022-12-05T17:03:34.782Z,24.90
2022-12-05T17:06:02.071Z,19.15
2022-12-05T17:08:28.650Z,26.27
2022-12-05T17:10:55.340Z,24.65
2022-12-05T17:13:21.858Z,21.42
2022-12-05T17:15:48.542Z,28.73
2022-12-05T17:18:21.855Z,25.23
2022-12-05T17:20:55.970Z,31.23
2022-12-05T17:23:22.463Z,30.58
2022-12-05T17:25:53.927Z,30.65
2022-12-05T17:28:21.236Z,22.63
2022-12-05T17:30:49.137Z,17.85
2022-12-05T17:33:18.329Z,19.23
2022-12-05T17:35:45.529Z,20.97
2022-12-05T17:38:12.225Z,19.55
2022-12-05T17:40:39.744Z,23.77
2022-12-05T17:43:06.461Z,25.80
2022-12-05T17:45:33.476Z,21.17
2022-12-05T17:48:00.141Z,27.13
2022-12-05T17:50:27.855Z,31.23
2022-12-05T17:53:02.831Z,30.00
2022-12-05T17:55:32.392Z,20.13
2022-12-05T17:57:58.892Z,19.70
2022-12-05T18:00:25.484Z,21.38
2022-12-05T18:02:52.651Z,20.35
2022-12-05T18:05:19.641Z,16.38
2022-12-05T18:07:46.937Z,18.30
2022-12-05T18:10:17.383Z,17.52
2022-12-05T18:12:43.986Z,14.40
2022-12-05T18:15:11.486Z,14.77
2022-12-05T18:17:38.051Z,20.15
2022-12-05T18:20:07.035Z,18.02
2022-12-05T18:22:33.663Z,19.52
2022-12-05T18:25:01.819Z,17.05
2022-12-05T18:27:29.282Z,20.30
2022-12-05T18:29:55.834Z,24.73
2022-12-05T18:32:22.631Z,24.50
2022-12-05T18:34:49.138Z,19.85
2022-12-05T18:37:16.613Z,12.18
2022-12-05T18:39:43.135Z,12.10
2022-12-05T18:42:14.937Z,11.20
2022-12-05T18:44:41.923Z,10.30
2022-12-05T18:47:08.452Z,11.15
2022-12-05T18:49:35.003Z,8.82
2022-12-05T18:52:01.507Z,7.28
2022-12-05T18:54:28.057Z,7.38
2022-12-05T18:56:54.608Z,5.97
2022-12-05T18:59:22.234Z,6.40
2022-12-05T19:01:50.004Z,7.15
2022-12-05T19:04:19.667Z,6.95
2022-12-05T19:06:52.523Z,6.63
2022-12-05T19:09:21.126Z,8.65
2022-12-05T19:11:49.807Z,8.10
2022-12-05T19:14:18.900Z,7.15
2022-12-05T19:16:47.996Z,10.32
2022-12-05T19:19:15.117Z,7.60
2022-12-05T19:21:42.244Z,10.23
2022-12-05T19:24:11.247Z,16.95
2022-12-05T19:26:37.934Z,15.85
2022-12-05T19:29:04.958Z,23.88
2022-12-05T19:31:32.096Z,15.48
2022-12-05T19:34:03.758Z,14.25
2022-12-05T19:36:33.251Z,8.40
2022-12-05T19:38:59.792Z,7.53
2022-12-05T19:41:28.874Z,9.02
2022-12-05T19:43:59.819Z,8.02
2022-12-05T19:46:29.636Z,9.00
2022-12-05T19:48:58.247Z,9.73
2022-12-05T19:51:24.960Z,9.75
2022-12-05T19:53:51.937Z,9.00
2022-12-05T19:56:24.328Z,9.02
2022-12-05T19:58:52.346Z,8.48
2022-12-05T20:01:30.887Z,7.95
2022-12-05T20:04:02.681Z,8.23
2022-12-05T20:06:35.559Z,9.00
2022-12-05T20:09:03.378Z,8.90
2022-12-05T20:11:31.327Z,10.60
2022-12-05T20:13:59.876Z,8.77
2022-12-05T20:16:27.672Z,10.55
2022-12-05T20:18:58.027Z,10.02
2022-12-05T20:21:25.603Z,9.98
2022-12-05T20:23:53.266Z,9.68
2022-12-05T20:26:22.567Z,9.30
2022-12-05T20:28:49.687Z,9.07
2022-12-05T20:31:18.258Z,7.93
2022-12-05T20:33:45.619Z,10.75
2022-12-05T20:36:15.278Z,8.77
2022-12-05T20:38:42.365Z,8.82
2022-12-05T20:41:11.695Z,12.88
2022-12-05T20:43:38.580Z,9.95
2022-12-05T20:46:16.818Z,11.93
2022-12-05T20:48:44.328Z,11.38
2022-12-05T20:51:13.418Z,13.98
2022-12-05T20:53:41.306Z,9.77
2022-12-05T20:56:19.673Z,12.73
2022-12-05T20:58:48.425Z,11.57
2022-12-05T21:01:16.660Z,11.02
2022-12-05T21:03:49.665Z,14.63
2022-12-05T21:06:24.319Z,11.55
2022-12-05T21:08:51.510Z,13.68
2022-12-05T21:11:18.458Z,10.73
2022-12-05T21:13:45.568Z,12.93
2022-12-05T21:16:14.831Z,13.00
2022-12-05T21:18:41.536Z,8.57
2022-12-05T21:21:14.651Z,14.55
2022-12-05T21:23:42.695Z,13.48
2022-12-05T21:26:13.040Z,9.38
2022-12-05T21:28:40.411Z,13.75
2022-12-05T21:31:12.452Z,11.38
2022-12-05T21:33:40.494Z,13.57
2022-12-05T21:36:08.309Z,11.48
2022-12-05T21:38:35.991Z,17.20
2022-12-05T21:41:04.109Z,10.55
2022-12-05T21:43:30.828Z,9.98
2022-12-05T21:45:57.730Z,10.63
2022-12-05T21:48:24.996Z,11.98
2022-12-05T21:50:52.301Z,9.55
2022-12-05T21:53:19.174Z,15.57
2022-12-05T21:55:45.795Z,17.98
2022-12-05T21:58:12.640Z,25.40
2022-12-05T22:00:39.608Z,16.13
2022-12-05T22:03:07.206Z,13.90
2022-12-05T22:05:33.853Z,15.73
2022-12-05T22:08:04.858Z,12.73
2022-12-05T22:10:34.745Z,11.20
2022-12-05T22:13:01.330Z,12.07
2022-12-05T22:15:27.820Z,15.45
2022-12-05T22:17:54.339Z,8.40
2022-12-05T22:20:20.838Z,8.70
2022-12-05T22:22:47.413Z,6.85
2022-12-05T22:25:14.054Z,9.02
2022-12-05T22:27:41.290Z,7.10
2022-12-05T22:30:08.545Z,7.15
2022-12-05T22:32:35.071Z,12.15
2022-12-05T22:35:04.010Z,7.22
2022-12-05T22:37:31.062Z,7.85
2022-12-05T22:39:57.913Z,7.82
2022-12-05T22:42:26.314Z,10.38
2022-12-05T22:44:52.744Z,9.73
2022-12-05T22:47:19.259Z,8.23
2022-12-05T22:49:45.740Z,8.05
2022-12-05T22:52:12.214Z,11.73
2022-12-05T22:54:39.197Z,9.25
2022-12-05T22:57:05.766Z,9.75
2022-12-05T22:59:32.599Z,9.52
2022-12-05T23:01:59.553Z,8.75
2022-12-05T23:04:26.113Z,7.95
2022-12-05T23:06:52.701Z,9.60
2022-12-05T23:09:20.566Z,8.10
2022-12-05T23:11:49.409Z,6.53
2022-12-05T23:14:15.913Z,7.03
2022-12-05T23:16:42.420Z,7.82
2022-12-05T23:19:09.286Z,8.32
2022-12-05T23:21:38.452Z,8.38
2022-12-05T23:24:11.082Z,7.85
2022-12-05T23:26:43.596Z,8.40
2022-12-05T23:29:12.386Z,6.68
2022-12-05T23:31:39.477Z,6.47
2022-12-05T23:34:06.138Z,6.53
2022-12-05T23:36:34.354Z,6.43
2022-12-05T23:39:01.474Z,5.70
2022-12-05T23:41:27.995Z,7.25
2022-12-05T23:43:55.114Z,7.20
2022-12-05T23:46:24.118Z,6.15
2022-12-05T23:48:51.465Z,7.10
2022-12-05T23:51:22.793Z,5.55
2022-12-05T23:53:54.422Z,6.85
2022-12-05T23:56:23.604Z,6.90
2022-12-05T23:58:50.504Z,5.67
